Cobb County-Mc Collum Field
KRYY : now visible

Airfield :











YOU CAN JOIN US ON...

 
LOGIN :

Register | Disclaimer

   EN    FR    IT 

 









Legend :    VFR   Marginal VFR   IFR   Intensive IFR   Very Intensive IFR
Visi :
Ceiling :
>= 8 km
>= 3000ft
5 to 8 km
1000 to 3000 ft
1500m to 5 km
500 to 1000 ft
800 to 1500m
200 to 500 ft
< 800m
< 200 ft
Symbols :   Thunderstorms  Fog  Heavy snow  Heavy precipitations  Wind > 20 kt






- Airport Elevation : 1040 ft


KRYY - Cobb County-Mc Collum Field

CURRENT METAR :
  • 170650Z AUTO 10003KT 10SM FEW002 BKN006 OVC016 21/21 A3010 RMK AO2 CIG 005V012 SLP184 T02110206 $

EXPIRED METARs :
  • 170550Z AUTO 08003KT 10SM BKN006 OVC012 21/21 A3011 RMK AO2 CIG 001V009 SLP185 T02110206 55003 $
  • 170450Z AUTO 10006KT 10SM OVC008 A3010 RMK AO2 SLPNO FZRANO $

TAF KRYY
Valid from the 17 at 06:00 until the 18 at 06:00 UTC


170527Z 1706/1806 10004KT 5SM BR BKN005
TEMPO 1709/1713 4SM BR BKN004
FM171700 12006KT P6SM BKN010
FM171800 12006KT P6SM VCSH SCT020
PROB30 1718/1724 4SM -TSRA BKN020CB
FM180300 00000KT P6SM BKN025
FM180400 00000KT 6SM BR BKN015
KZTL FIR / North America



MET'MAP, your aeronautical weather chart ! - Copyright ORBIFLY December 2007 - Disclaimer

ORBIFLY MET'MAP TEAM :

Programming & Development : Alexandra Zaïnal
Concept & original design : Baudouin d'Aumeries
Assistance for programming : Marc-Olivier Méhu
Technical & hardware support : Manuel Goepfert

Contact : metmap@orbifly.com




SOURCES & CREDITS :

   NOAA       Earth
Advisory